Time;durP1;ratioP1;P1;durP2;ratioP2;P2;SDS_P1;SDS_P2;PMS_P1;PMS_P2;Temp;Humidity;BMP_temperature;BMP_pressure;BME280_temperature;BME280_humidity;BME280_pressure;Samples;Min_cycle;Max_cycle;Signal;HPM_P1;HPM_P2
2021/06/29 00:44:37;;;;;;;14.18;5.05;;;;;;;;;;5022501;28;21762;-54
2021/06/29 00:47:02;;;;;;;17.42;4.88;;;;;;;;;;5027843;28;20191;-53
2021/06/29 00:49:28;;;;;;;19.85;4.80;;;;;;;;;;5023740;28;20858;-54
2021/06/29 00:51:53;;;;;;;14.98;5.30;;;;;;;;;;5032501;28;20577;-54
2021/06/29 00:54:18;;;;;;;19.15;4.85;;;;;;;;;;5029342;28;20224;-54
2021/06/29 00:56:47;;;;;;;17.27;4.80;;;;;;;;;;5022879;28;20666;-53
2021/06/29 00:59:12;;;;;;;16.10;4.65;;;;;;;;;;5025659;28;20308;-53
2021/06/29 01:01:38;;;;;;;22.20;5.78;;;;;;;;;;5026386;28;20261;-54
2021/06/29 01:04:05;;;;;;;13.87;4.57;;;;;;;;;;5011236;28;20186;-54
2021/06/29 01:06:32;;;;;;;26.17;6.35;;;;;;;;;;5032185;28;20202;-54
2021/06/29 01:08:57;;;;;;;17.27;4.70;;;;;;;;;;5027436;28;20267;-54
2021/06/29 01:11:23;;;;;;;12.23;4.85;;;;;;;;;;5027413;28;20301;-53
2021/06/29 01:13:48;;;;;;;15.60;5.10;;;;;;;;;;5031921;28;20187;-53
2021/06/29 01:16:14;;;;;;;16.50;5.03;;;;;;;;;;5026406;28;20631;-54
2021/06/29 01:18:42;;;;;;;14.48;4.53;;;;;;;;;;5009302;28;20175;-53
2021/06/29 01:21:13;;;;;;;11.88;4.28;;;;;;;;;;5024744;28;20560;-53
2021/06/29 01:23:40;;;;;;;12.18;4.70;;;;;;;;;;5027665;28;20194;-53
2021/06/29 01:26:19;;;;;;;24.15;5.30;;;;;;;;;;5028674;28;20559;-53
2021/06/29 01:31:17;;;;;;;15.68;4.63;;;;;;;;;;5023637;28;20218;-53
2021/06/29 01:33:43;;;;;;;13.57;5.25;;;;;;;;;;5021899;28;20268;-53
2021/06/29 01:36:10;;;;;;;18.00;5.07;;;;;;;;;;5011950;28;20667;-54
2021/06/29 01:38:35;;;;;;;14.95;4.90;;;;;;;;;;5010017;28;20177;-53
2021/06/29 01:41:00;;;;;;;11.23;4.70;;;;;;;;;;5032073;28;20591;-53
2021/06/29 01:43:29;;;;;;;16.25;4.90;;;;;;;;;;5018108;28;20211;-53
2021/06/29 01:45:56;;;;;;;7.03;3.95;;;;;;;;;;5025634;28;20637;-52
2021/06/29 01:48:22;;;;;;;15.65;3.88;;;;;;;;;;5021660;28;20189;-53
2021/06/29 01:50:49;;;;;;;9.60;4.07;;;;;;;;;;5009526;28;20209;-53
2021/06/29 01:53:14;;;;;;;9.55;3.90;;;;;;;;;;5023133;28;20244;-53
2021/06/29 01:55:40;;;;;;;5.68;4.00;;;;;;;;;;5028048;28;20186;-53
2021/06/29 01:58:05;;;;;;;7.25;3.90;;;;;;;;;;5011337;28;20633;-53
2021/06/29 02:00:31;;;;;;;8.02;4.07;;;;;;;;;;5012545;28;20645;-52
2021/06/29 02:02:56;;;;;;;5.18;3.50;;;;;;;;;;5027028;28;20248;-53
2021/06/29 02:05:21;;;;;;;5.07;3.38;;;;;;;;;;5024184;28;20187;-53
2021/06/29 02:07:47;;;;;;;4.90;3.20;;;;;;;;;;5029430;28;20222;-54
2021/06/29 02:10:14;;;;;;;7.55;3.25;;;;;;;;;;5025109;28;21458;-52
2021/06/29 02:12:40;;;;;;;6.32;3.72;;;;;;;;;;5030838;28;20266;-53
2021/06/29 02:15:06;;;;;;;7.13;3.60;;;;;;;;;;5026429;28;20769;-53
2021/06/29 02:17:32;;;;;;;4.35;3.33;;;;;;;;;;5027410;28;20204;-52
2021/06/29 02:19:57;;;;;;;4.78;3.28;;;;;;;;;;5008727;28;20210;-53
2021/06/29 02:22:22;;;;;;;9.95;3.28;;;;;;;;;;5024537;28;20267;-52
2021/06/29 02:24:48;;;;;;;12.10;3.30;;;;;;;;;;5016046;28;20222;-53
2021/06/29 02:27:13;;;;;;;5.15;3.20;;;;;;;;;;5022046;28;20626;-53
2021/06/29 02:29:40;;;;;;;4.63;3.00;;;;;;;;;;5031117;28;20196;-52
2021/06/29 02:32:06;;;;;;;7.32;2.97;;;;;;;;;;5008904;28;20187;-53
2021/06/29 02:34:31;;;;;;;4.60;2.90;;;;;;;;;;5026560;28;20714;-54
2021/06/29 02:36:59;;;;;;;6.18;3.10;;;;;;;;;;5023758;28;20277;-53
2021/06/29 02:39:24;;;;;;;4.78;3.00;;;;;;;;;;5025076;28;20313;-53
2021/06/29 02:41:49;;;;;;;5.95;3.28;;;;;;;;;;5022843;28;20240;-53
2021/06/29 02:44:15;;;;;;;5.18;3.70;;;;;;;;;;5026688;28;20650;-53
2021/06/29 02:46:40;;;;;;;5.35;3.20;;;;;;;;;;5029054;28;20178;-53
2021/06/29 02:49:05;;;;;;;6.38;3.70;;;;;;;;;;5004840;28;20201;-53
2021/06/29 02:51:31;;;;;;;5.53;3.67;;;;;;;;;;5029858;28;20199;-53
2021/06/29 02:53:56;;;;;;;8.95;4.10;;;;;;;;;;5024236;28;20194;-54
2021/06/29 02:56:37;;;;;;;7.60;4.30;;;;;;;;;;5034799;28;20665;-53
2021/06/29 02:59:04;;;;;;;9.23;4.25;;;;;;;;;;5025243;28;20650;-54
2021/06/29 03:01:29;;;;;;;5.60;4.50;;;;;;;;;;5028390;28;20234;-53
2021/06/29 03:03:54;;;;;;;8.10;4.28;;;;;;;;;;5009842;28;20671;-53
2021/06/29 03:06:19;;;;;;;4.28;3.80;;;;;;;;;;5021059;28;20265;-53
2021/06/29 03:08:45;;;;;;;6.57;4.28;;;;;;;;;;5014902;28;20277;-54
2021/06/29 03:11:10;;;;;;;7.28;4.10;;;;;;;;;;5024133;28;20280;-54
2021/06/29 03:13:35;;;;;;;5.35;3.83;;;;;;;;;;5029412;28;20233;-53
2021/06/29 03:16:01;;;;;;;4.32;3.80;;;;;;;;;;5025435;28;20183;-54
2021/06/29 03:18:26;;;;;;;5.15;4.05;;;;;;;;;;5024743;28;20191;-54
2021/06/29 03:20:51;;;;;;;11.25;3.83;;;;;;;;;;5023157;28;20776;-54
2021/06/29 03:23:17;;;;;;;5.63;4.28;;;;;;;;;;5022100;28;20290;-53
2021/06/29 03:25:42;;;;;;;7.57;4.22;;;;;;;;;;5031357;28;20178;-53
2021/06/29 03:28:08;;;;;;;5.45;4.82;;;;;;;;;;5027409;28;20190;-53
2021/06/29 03:30:33;;;;;;;5.78;5.28;;;;;;;;;;5034510;28;20186;-53
2021/06/29 03:32:58;;;;;;;6.63;4.38;;;;;;;;;;5028536;28;20190;-54
2021/06/29 03:35:23;;;;;;;6.15;4.93;;;;;;;;;;5031302;28;20766;-53
2021/06/29 03:37:49;;;;;;;6.03;4.63;;;;;;;;;;5027371;28;20191;-53
2021/06/29 03:40:16;;;;;;;6.60;4.13;;;;;;;;;;5030393;28;20241;-53
2021/06/29 03:42:41;;;;;;;5.05;3.60;;;;;;;;;;5030039;28;20591;-53
2021/06/29 03:45:07;;;;;;;5.70;4.30;;;;;;;;;;5025684;28;20179;-53
2021/06/29 03:47:32;;;;;;;7.93;4.70;;;;;;;;;;5031071;28;20210;-53
2021/06/29 03:50:00;;;;;;;4.28;3.88;;;;;;;;;;5024088;28;20264;-54
2021/06/29 03:52:26;;;;;;;4.45;4.05;;;;;;;;;;5026981;28;20194;-53
2021/06/29 03:54:51;;;;;;;4.20;3.50;;;;;;;;;;5031636;28;20194;-53
2021/06/29 03:57:17;;;;;;;4.10;3.70;;;;;;;;;;5028864;28;20187;-53
2021/06/29 03:59:42;;;;;;;4.10;3.58;;;;;;;;;;5033094;28;20177;-54
2021/06/29 04:02:07;;;;;;;4.10;3.70;;;;;;;;;;5027907;28;20194;-54
2021/06/29 04:04:32;;;;;;;4.40;4.00;;;;;;;;;;5029225;28;20269;-53
2021/06/29 04:06:58;;;;;;;4.38;3.90;;;;;;;;;;5026042;28;20193;-54
2021/06/29 04:09:23;;;;;;;3.88;3.58;;;;;;;;;;5015939;28;20554;-54
2021/06/29 04:11:48;;;;;;;4.72;4.22;;;;;;;;;;5011818;28;20260;-53
2021/06/29 04:14:13;;;;;;;4.47;4.07;;;;;;;;;;5018347;28;20211;-53
2021/06/29 04:16:39;;;;;;;5.55;4.60;;;;;;;;;;5028946;28;20684;-53
2021/06/29 04:19:04;;;;;;;7.97;4.25;;;;;;;;;;5026860;28;20186;-53
2021/06/29 04:21:29;;;;;;;5.35;4.28;;;;;;;;;;5028648;28;20248;-53
2021/06/29 04:23:55;;;;;;;4.35;3.90;;;;;;;;;;5027694;28;20190;-53
2021/06/29 04:26:20;;;;;;;5.80;4.20;;;;;;;;;;5016177;28;20183;-52
2021/06/29 04:28:46;;;;;;;7.90;4.05;;;;;;;;;;5026389;28;20206;-53
2021/06/29 04:31:11;;;;;;;4.18;3.67;;;;;;;;;;5035632;28;20281;-53
2021/06/29 04:33:37;;;;;;;6.00;4.00;;;;;;;;;;5025694;28;20180;-54
2021/06/29 04:36:03;;;;;;;3.72;3.40;;;;;;;;;;5025871;28;20283;-53
2021/06/29 04:38:28;;;;;;;4.85;3.97;;;;;;;;;;5030381;28;20206;-53
2021/06/29 04:40:53;;;;;;;4.57;4.10;;;;;;;;;;5027830;28;20297;-53
2021/06/29 04:43:19;;;;;;;6.95;4.50;;;;;;;;;;5028300;28;20183;-53
2021/06/29 04:45:44;;;;;;;4.95;4.22;;;;;;;;;;5024415;28;20194;-52
2021/06/29 04:48:10;;;;;;;4.57;4.20;;;;;;;;;;5030193;28;20236;-53
2021/06/29 04:50:35;;;;;;;6.37;4.23;;;;;;;;;;5024872;28;20222;-52
2021/06/29 04:53:01;;;;;;;7.15;4.28;;;;;;;;;;5028518;28;20565;-52
2021/06/29 04:55:26;;;;;;;5.40;3.85;;;;;;;;;;5014454;28;20643;-54
2021/06/29 04:57:51;;;;;;;3.22;3.03;;;;;;;;;;5027816;28;20693;-54
2021/06/29 05:00:19;;;;;;;4.10;3.38;;;;;;;;;;5028259;28;20733;-53
2021/06/29 05:02:45;;;;;;;6.03;4.18;;;;;;;;;;5009636;28;20190;-54
2021/06/29 05:05:11;;;;;;;3.97;3.45;;;;;;;;;;5031555;28;20187;-53
2021/06/29 05:07:40;;;;;;;4.00;2.95;;;;;;;;;;5024443;28;20638;-53
2021/06/29 05:10:07;;;;;;;3.90;2.40;;;;;;;;;;5031530;28;20265;-54
2021/06/29 05:12:33;;;;;;;3.03;2.83;;;;;;;;;;5013152;28;20226;-54
2021/06/29 05:14:59;;;;;;;3.38;2.90;;;;;;;;;;5030585;28;20191;-53
2021/06/29 05:17:24;;;;;;;3.42;3.10;;;;;;;;;;5032427;28;20680;-53
2021/06/29 05:19:49;;;;;;;3.22;2.92;;;;;;;;;;5024946;28;20652;-54
2021/06/29 05:22:15;;;;;;;3.97;3.13;;;;;;;;;;5029069;28;20190;-54
2021/06/29 05:24:40;;;;;;;3.60;3.28;;;;;;;;;;5025784;28;20268;-54
2021/06/29 05:27:05;;;;;;;4.18;3.42;;;;;;;;;;5028512;28;20602;-54
2021/06/29 05:29:31;;;;;;;3.92;3.58;;;;;;;;;;5029820;28;20234;-54
2021/06/29 05:31:56;;;;;;;3.70;3.40;;;;;;;;;;5059321;22;20634;-56
2021/06/29 05:34:22;;;;;;;3.65;3.05;;;;;;;;;;5041842;28;20205;-58
2021/06/29 05:36:47;;;;;;;3.80;3.15;;;;;;;;;;5043094;28;20197;-57
2021/06/29 05:39:15;;;;;;;6.80;3.42;;;;;;;;;;5051205;28;20217;-57
2021/06/29 05:41:41;;;;;;;4.25;3.38;;;;;;;;;;5023650;28;20272;-55
2021/06/29 05:44:06;;;;;;;3.20;2.97;;;;;;;;;;5022670;28;20666;-55
2021/06/29 05:46:31;;;;;;;3.95;3.38;;;;;;;;;;5021049;28;20659;-59
2021/06/29 05:48:57;;;;;;;3.38;3.08;;;;;;;;;;5019580;28;20249;-58
2021/06/29 05:51:22;;;;;;;3.65;3.05;;;;;;;;;;5016258;28;20947;-56
2021/06/29 05:53:47;;;;;;;3.90;3.00;;;;;;;;;;5022800;28;20182;-57
2021/06/29 05:56:13;;;;;;;3.72;3.30;;;;;;;;;;5027101;28;20658;-57
2021/06/29 05:58:39;;;;;;;2.83;2.63;;;;;;;;;;5020792;28;20198;-57
2021/06/29 06:01:06;;;;;;;5.10;3.00;;;;;;;;;;5020576;28;20210;-57
2021/06/29 06:03:31;;;;;;;3.83;2.83;;;;;;;;;;5024571;28;20195;-57
2021/06/29 06:05:57;;;;;;;3.45;3.03;;;;;;;;;;5029572;28;20190;-57
2021/06/29 06:08:23;;;;;;;4.28;2.88;;;;;;;;;;5026050;28;20183;-57
2021/06/29 06:10:49;;;;;;;7.15;3.35;;;;;;;;;;5026988;28;20238;-57
2021/06/29 06:13:15;;;;;;;4.38;2.90;;;;;;;;;;5021233;28;20218;-56
2021/06/29 06:15:40;;;;;;;3.80;3.35;;;;;;;;;;5022902;28;20253;-58
2021/06/29 06:18:06;;;;;;;3.55;2.83;;;;;;;;;;5030788;28;20185;-58
2021/06/29 06:20:36;;;;;;;4.35;3.30;;;;;;;;;;5021136;28;20233;-56
2021/06/29 06:23:02;;;;;;;4.70;2.58;;;;;;;;;;5018418;28;20205;-57
2021/06/29 06:25:28;;;;;;;7.38;3.40;;;;;;;;;;5014872;28;20198;-58
2021/06/29 06:27:53;;;;;;;2.92;2.72;;;;;;;;;;5021205;28;20201;-58
2021/06/29 06:30:19;;;;;;;3.00;2.70;;;;;;;;;;5023091;28;20308;-56
2021/06/29 06:32:44;;;;;;;3.10;2.70;;;;;;;;;;5025050;28;20278;-57
2021/06/29 06:35:10;;;;;;;4.90;3.08;;;;;;;;;;5025690;28;20179;-56
2021/06/29 06:37:35;;;;;;;3.22;2.78;;;;;;;;;;5013758;28;20197;-58
2021/06/29 06:40:01;;;;;;;4.13;3.72;;;;;;;;;;5019061;28;20298;-57
2021/06/29 06:42:26;;;;;;;3.38;3.08;;;;;;;;;;5021875;28;20189;-57
2021/06/29 06:44:52;;;;;;;3.25;3.00;;;;;;;;;;5019651;28;20659;-57
2021/06/29 06:47:17;;;;;;;2.92;2.60;;;;;;;;;;5022383;28;20202;-58
2021/06/29 06:49:43;;;;;;;4.47;2.97;;;;;;;;;;5027015;28;20183;-55
2021/06/29 06:52:08;;;;;;;3.30;3.00;;;;;;;;;;5022322;28;21062;-57
2021/06/29 06:54:34;;;;;;;3.65;3.17;;;;;;;;;;5016120;28;20216;-58
2021/06/29 06:56:59;;;;;;;3.50;3.10;;;;;;;;;;5025161;28;20226;-57
2021/06/29 06:59:24;;;;;;;3.08;2.80;;;;;;;;;;5020307;28;20240;-57
2021/06/29 07:01:50;;;;;;;3.60;2.40;;;;;;;;;;5024279;28;20202;-57
2021/06/29 07:04:16;;;;;;;4.45;3.05;;;;;;;;;;5022374;28;20187;-58
2021/06/29 07:06:41;;;;;;;3.45;2.80;;;;;;;;;;5016668;28;20194;-56
2021/06/29 07:09:07;;;;;;;2.85;2.60;;;;;;;;;;5023042;28;20686;-56
2021/06/29 07:11:32;;;;;;;2.97;2.67;;;;;;;;;;5028917;28;20205;-58
2021/06/29 07:13:57;;;;;;;3.92;3.00;;;;;;;;;;5024538;28;20659;-60
2021/06/29 07:16:23;;;;;;;3.65;3.15;;;;;;;;;;5015400;28;20198;-59
2021/06/29 07:18:48;;;;;;;3.83;2.92;;;;;;;;;;5024813;28;20256;-57
2021/06/29 07:21:13;;;;;;;4.18;3.10;;;;;;;;;;5021061;28;20205;-59
2021/06/29 07:23:39;;;;;;;5.22;3.00;;;;;;;;;;5021169;28;20195;-59
2021/06/29 07:26:04;;;;;;;3.85;3.45;;;;;;;;;;5020501;28;20244;-59
2021/06/29 07:28:29;;;;;;;5.05;3.55;;;;;;;;;;5014579;28;20191;-58
2021/06/29 07:30:55;;;;;;;4.10;3.20;;;;;;;;;;5020913;28;20284;-56
2021/06/29 07:33:20;;;;;;;5.35;3.38;;;;;;;;;;5023841;28;20198;-56
2021/06/29 07:35:46;;;;;;;5.85;2.88;;;;;;;;;;5020748;28;20262;-56
2021/06/29 07:38:11;;;;;;;3.28;2.97;;;;;;;;;;5025071;28;21337;-57
2021/06/29 07:40:37;;;;;;;6.15;3.20;;;;;;;;;;5022685;28;20207;-57
2021/06/29 07:43:03;;;;;;;3.70;3.38;;;;;;;;;;5021544;28;20183;-57
2021/06/29 07:45:29;;;;;;;5.63;2.92;;;;;;;;;;5023417;28;20278;-59
2021/06/29 07:47:57;;;;;;;4.47;3.13;;;;;;;;;;5023530;28;20198;-57
2021/06/29 07:50:23;;;;;;;3.97;2.85;;;;;;;;;;5021447;28;20305;-59
2021/06/29 07:52:48;;;;;;;3.95;3.30;;;;;;;;;;5028842;28;20714;-58
2021/06/29 07:55:13;;;;;;;3.33;3.03;;;;;;;;;;5020051;28;20186;-59
2021/06/29 07:57:39;;;;;;;7.80;3.50;;;;;;;;;;5023547;28;20191;-57
2021/06/29 08:00:07;;;;;;;4.25;3.20;;;;;;;;;;5019597;28;20780;-57
2021/06/29 08:02:32;;;;;;;4.68;2.80;;;;;;;;;;5021966;28;20179;-57
2021/06/29 08:04:58;;;;;;;3.63;2.75;;;;;;;;;;5019326;28;20199;-57
2021/06/29 08:07:23;;;;;;;4.10;3.25;;;;;;;;;;5020535;28;20190;-58
2021/06/29 08:09:48;;;;;;;3.50;3.20;;;;;;;;;;5025206;28;20182;-58
2021/06/29 08:12:13;;;;;;;5.88;3.50;;;;;;;;;;5024593;28;20292;-57
2021/06/29 08:14:39;;;;;;;5.72;3.40;;;;;;;;;;5028473;28;20639;-56
2021/06/29 08:17:06;;;;;;;3.90;3.60;;;;;;;;;;5030797;28;20187;-56
2021/06/29 08:19:32;;;;;;;4.80;4.10;;;;;;;;;;5023857;28;20847;-56
2021/06/29 08:21:57;;;;;;;4.80;4.22;;;;;;;;;;5025180;28;20234;-54
2021/06/29 08:24:23;;;;;;;5.95;4.57;;;;;;;;;;5034062;28;20190;-57
2021/06/29 08:26:48;;;;;;;7.68;4.30;;;;;;;;;;5022243;28;20278;-58
2021/06/29 08:29:14;;;;;;;5.88;4.22;;;;;;;;;;5020812;28;20194;-55
2021/06/29 08:31:39;;;;;;;6.53;4.40;;;;;;;;;;5026205;28;20692;-55
2021/06/29 08:34:05;;;;;;;5.07;4.18;;;;;;;;;;5025440;28;20244;-57
2021/06/29 08:36:31;;;;;;;4.40;4.00;;;;;;;;;;5026531;28;20256;-58
2021/06/29 08:38:58;;;;;;;6.47;4.13;;;;;;;;;;5023459;28;20221;-56
2021/06/29 08:41:23;;;;;;;11.82;4.40;;;;;;;;;;5024886;28;20214;-58
2021/06/29 08:43:50;;;;;;;4.32;4.00;;;;;;;;;;5025504;28;20186;-59
2021/06/29 08:46:16;;;;;;;5.03;4.00;;;;;;;;;;5028577;28;20185;-58
2021/06/29 08:48:41;;;;;;;6.90;4.20;;;;;;;;;;5027087;28;20182;-56
2021/06/29 08:51:07;;;;;;;4.30;3.90;;;;;;;;;;5027796;28;20206;-56
2021/06/29 08:53:34;;;;;;;6.43;4.05;;;;;;;;;;5034776;28;20185;-58
2021/06/29 08:56:01;;;;;;;8.05;4.60;;;;;;;;;;5022521;28;21682;-55
2021/06/29 08:58:27;;;;;;;5.35;4.88;;;;;;;;;;5029750;28;20182;-57
2021/06/29 09:00:54;;;;;;;5.82;4.32;;;;;;;;;;5024732;28;20694;-57
2021/06/29 09:03:20;;;;;;;6.90;4.38;;;;;;;;;;5011025;28;20210;-58
2021/06/29 09:05:47;;;;;;;4.95;4.50;;;;;;;;;;5025700;28;20214;-58
2021/06/29 09:08:14;;;;;;;5.78;3.90;;;;;;;;;;5028852;28;20265;-57
2021/06/29 09:10:45;;;;;;;7.47;3.92;;;;;;;;;;5027393;28;20206;-58
2021/06/29 09:13:21;;;;;;;4.65;3.53;;;;;;;;;;5035919;28;20218;-56
2021/06/29 09:15:47;;;;;;;7.05;3.58;;;;;;;;;;5024044;28;20201;-57
2021/06/29 09:18:25;;;;;;;5.63;2.58;;;;;;;;;;5024131;28;20658;-56
2021/06/29 09:21:00;;;;;;;2.72;2.40;;;;;;;;;;5025963;28;20221;-58
2021/06/29 09:23:36;;;;;;;5.00;2.45;;;;;;;;;;5029388;28;20182;-56
2021/06/29 09:26:10;;;;;;;2.90;2.13;;;;;;;;;;5027545;28;20183;-56
2021/06/29 09:28:38;;;;;;;3.05;1.80;;;;;;;;;;5028451;28;20226;-57
2021/06/29 09:31:08;;;;;;;2.45;2.03;;;;;;;;;;5024348;28;20222;-57
2021/06/29 09:33:36;;;;;;;5.18;2.53;;;;;;;;;;5030266;28;20225;-57
2021/06/29 09:36:07;;;;;;;3.33;2.70;;;;;;;;;;5025178;28;20194;-56
2021/06/29 09:38:35;;;;;;;4.60;2.90;;;;;;;;;;5020817;28;20199;-57
2021/06/29 09:41:05;;;;;;;4.80;2.50;;;;;;;;;;5028729;28;20250;-58
2021/06/29 09:43:34;;;;;;;3.08;2.88;;;;;;;;;;5022039;28;20226;-57
2021/06/29 09:46:01;;;;;;;5.07;3.08;;;;;;;;;;5018140;28;20189;-61
2021/06/29 09:48:33;;;;;;;4.43;2.97;;;;;;;;;;5024214;28;20187;-59
2021/06/29 09:51:03;;;;;;;3.63;3.33;;;;;;;;;;5024830;28;20575;-56
2021/06/29 09:53:31;;;;;;;4.05;2.70;;;;;;;;;;5023563;28;20182;-57
2021/06/29 09:55:59;;;;;;;6.55;2.97;;;;;;;;;;5021734;28;20182;-59
2021/06/29 09:58:26;;;;;;;4.70;3.40;;;;;;;;;;5024119;28;20214;-56
2021/06/29 10:00:53;;;;;;;3.35;3.05;;;;;;;;;;5018927;28;20220;-58
2021/06/29 10:03:21;;;;;;;5.60;2.83;;;;;;;;;;5029868;28;20211;-56
2021/06/29 10:05:48;;;;;;;5.15;2.80;;;;;;;;;;5012680;28;20676;-56
2021/06/29 10:08:28;;;;;;;5.07;2.90;;;;;;;;;;5025912;28;20784;-57
2021/06/29 10:11:15;;;;;;;3.53;3.22;;;;;;;;;;5018968;28;20206;-57
2021/06/29 10:13:47;;;;;;;3.00;2.70;;;;;;;;;;5026070;28;20195;-57
2021/06/29 10:16:14;;;;;;;3.90;2.40;;;;;;;;;;5019940;28;20191;-55
2021/06/29 10:18:48;;;;;;;4.45;2.40;;;;;;;;;;5018547;28;20198;-58
2021/06/29 10:21:18;;;;;;;5.03;2.75;;;;;;;;;;5024810;28;20907;-57
2021/06/29 10:23:44;;;;;;;3.75;2.80;;;;;;;;;;5021427;28;20594;-58
2021/06/29 10:26:10;;;;;;;3.03;2.30;;;;;;;;;;5023122;28;20202;-58
2021/06/29 10:28:37;;;;;;;3.45;2.13;;;;;;;;;;5020685;28;20616;-56
2021/06/29 10:31:03;;;;;;;3.17;2.30;;;;;;;;;;5022035;28;20213;-58
2021/06/29 10:33:29;;;;;;;4.28;2.50;;;;;;;;;;5020531;28;20195;-58
2021/06/29 10:35:54;;;;;;;3.33;2.30;;;;;;;;;;5019384;28;20240;-58
2021/06/29 10:38:21;;;;;;;4.20;3.05;;;;;;;;;;5024933;28;20617;-58
2021/06/29 10:40:51;;;;;;;3.63;2.67;;;;;;;;;;5016669;28;20221;-59
2021/06/29 10:43:17;;;;;;;3.22;2.00;;;;;;;;;;5030670;28;20697;-57
2021/06/29 10:45:42;;;;;;;2.70;2.50;;;;;;;;;;5022553;28;20190;-57
2021/06/29 10:48:25;;;;;;;2.88;2.60;;;;;;;;;;5023085;28;20272;-57
2021/06/29 10:50:53;;;;;;;2.92;2.60;;;;;;;;;;5029053;28;20197;-58
2021/06/29 10:53:37;;;;;;;5.20;2.85;;;;;;;;;;5018390;28;20194;-57
2021/06/29 10:56:08;;;;;;;2.92;1.90;;;;;;;;;;5022287;28;20804;-57
2021/06/29 10:58:34;;;;;;;2.30;2.00;;;;;;;;;;5028496;28;20182;-59
2021/06/29 11:01:19;;;;;;;4.20;2.00;;;;;;;;;;5021264;28;20210;-56
2021/06/29 11:03:44;;;;;;;2.53;1.95;;;;;;;;;;5025175;28;20528;-55
2021/06/29 11:06:10;;;;;;;3.78;2.20;;;;;;;;;;5022349;28;20244;-58
2021/06/29 11:08:48;;;;;;;4.18;2.35;;;;;;;;;;5026656;28;20180;-60
2021/06/29 11:11:14;;;;;;;3.97;2.25;;;;;;;;;;5019431;28;20217;-58
2021/06/29 11:13:41;;;;;;;2.92;2.17;;;;;;;;;;5021264;28;20194;-58
2021/06/29 11:16:06;;;;;;;5.20;2.75;;;;;;;;;;5024109;28;20183;-54
2021/06/29 11:18:38;;;;;;;3.08;2.20;;;;;;;;;;5032513;28;20195;-59
2021/06/29 11:21:06;;;;;;;4.05;2.50;;;;;;;;;;5039382;28;20262;-57
2021/06/29 11:23:33;;;;;;;2.67;2.47;;;;;;;;;;5024489;28;20186;-56
2021/06/29 11:26:00;;;;;;;2.80;2.58;;;;;;;;;;5027053;28;20693;-58
2021/06/29 11:28:37;;;;;;;5.00;2.92;;;;;;;;;;5024088;28;20191;-59
2021/06/29 11:31:40;;;;;;;3.40;2.80;;;;;;;;;;5022978;28;20209;-59
2021/06/29 11:34:08;;;;;;;2.78;2.58;;;;;;;;;;5030902;28;20182;-59
2021/06/29 11:36:34;;;;;;;4.20;3.28;;;;;;;;;;5017910;28;20239;-57
2021/06/29 11:39:22;;;;;;;4.63;3.05;;;;;;;;;;5027134;28;20183;-58
2021/06/29 11:41:51;;;;;;;3.67;3.25;;;;;;;;;;5024664;28;20210;-55
2021/06/29 11:44:16;;;;;;;6.55;3.45;;;;;;;;;;5019555;28;20289;-58
2021/06/29 11:46:53;;;;;;;4.20;3.28;;;;;;;;;;5025783;28;20631;-57
2021/06/29 11:49:39;;;;;;;4.10;3.50;;;;;;;;;;5036686;28;20663;-58
2021/06/29 11:52:14;;;;;;;5.95;3.55;;;;;;;;;;5028838;28;20186;-58
2021/06/29 11:54:55;;;;;;;3.83;3.45;;;;;;;;;;5028692;28;20673;-55
2021/06/29 11:57:41;;;;;;;4.72;3.30;;;;;;;;;;5028591;28;20191;-55
2021/06/29 12:00:22;;;;;;;5.22;3.53;;;;;;;;;;5029750;28;20203;-59
2021/06/29 12:02:50;;;;;;;5.68;3.97;;;;;;;;;;5029319;28;20188;-57
2021/06/29 12:05:19;;;;;;;3.70;3.38;;;;;;;;;;5023917;28;20252;-57
2021/06/29 12:07:47;;;;;;;7.60;3.60;;;;;;;;;;5024155;28;20187;-57
2021/06/29 12:10:28;;;;;;;3.92;3.60;;;;;;;;;;5022279;28;20206;-57
2021/06/29 12:13:10;;;;;;;7.72;3.80;;;;;;;;;;5030240;28;20183;-57
2021/06/29 12:15:46;;;;;;;5.25;3.63;;;;;;;;;;5026827;28;20702;-57
2021/06/29 12:18:17;;;;;;;4.55;3.78;;;;;;;;;;5027857;28;20179;-57
2021/06/29 12:20:48;;;;;;;4.97;3.25;;;;;;;;;;5032884;28;20210;-57
2021/06/29 12:23:15;;;;;;;3.67;3.28;;;;;;;;;;5039261;28;20194;-57
2021/06/29 12:25:47;;;;;;;5.47;2.92;;;;;;;;;;5027603;28;20193;-58
2021/06/29 12:28:15;;;;;;;7.10;3.42;;;;;;;;;;5027578;28;20182;-57
2021/06/29 12:30:42;;;;;;;7.97;3.38;;;;;;;;;;5020056;28;20210;-57
2021/06/29 12:33:34;;;;;;;3.88;3.40;;;;;;;;;;5025474;28;20219;-57
2021/06/29 12:36:03;;;;;;;4.57;3.15;;;;;;;;;;5021977;28;20269;-57
2021/06/29 12:38:32;;;;;;;6.15;3.10;;;;;;;;;;5021742;28;20186;-57
2021/06/29 12:41:02;;;;;;;4.45;2.92;;;;;;;;;;5023042;28;20222;-58
2021/06/29 12:43:30;;;;;;;5.45;3.80;;;;;;;;;;5033439;28;20193;-55
2021/06/29 12:45:58;;;;;;;4.15;3.15;;;;;;;;;;5031581;28;20190;-57
2021/06/29 12:48:24;;;;;;;4.93;3.50;;;;;;;;;;5026521;28;20201;-57
2021/06/29 12:51:04;;;;;;;3.17;2.78;;;;;;;;;;5022222;28;20222;-58
2021/06/29 12:53:29;;;;;;;6.55;3.53;;;;;;;;;;5020287;28;20255;-57
2021/06/29 12:56:18;;;;;;;6.95;3.63;;;;;;;;;;5022606;28;20759;-56
2021/06/29 12:58:48;;;;;;;4.10;3.70;;;;;;;;;;5023205;28;20217;-58
2021/06/29 13:01:15;;;;;;;4.15;3.47;;;;;;;;;;5022948;28;20203;-57
2021/06/29 13:03:43;;;;;;;4.32;3.22;;;;;;;;;;5030170;28;20227;-58
2021/06/29 13:06:15;;;;;;;5.07;3.63;;;;;;;;;;5024131;28;20183;-57
2021/06/29 13:08:41;;;;;;;3.60;3.30;;;;;;;;;;5026532;28;20190;-58
2021/06/29 13:11:15;;;;;;;7.32;3.47;;;;;;;;;;5023823;28;20233;-57
2021/06/29 13:13:55;;;;;;;3.95;3.13;;;;;;;;;;5030524;28;20799;-57
2021/06/29 13:16:21;;;;;;;3.38;3.08;;;;;;;;;;5026389;28;20282;-57
2021/06/29 13:18:46;;;;;;;4.55;3.17;;;;;;;;;;5021420;28;20269;-57
2021/06/29 13:21:27;;;;;;;5.30;3.13;;;;;;;;;;5019810;28;20725;-57
2021/06/29 13:24:08;;;;;;;7.80;3.13;;;;;;;;;;5025988;28;20724;-57
2021/06/29 13:26:55;;;;;;;3.85;3.35;;;;;;;;;;5025506;28;20194;-57
2021/06/29 13:29:24;;;;;;;4.80;3.35;;;;;;;;;;5022684;28;20231;-57
2021/06/29 13:31:50;;;;;;;4.38;3.40;;;;;;;;;;5025250;28;20210;-57
2021/06/29 13:34:21;;;;;;;4.47;3.38;;;;;;;;;;5028410;28;20199;-56
2021/06/29 13:36:46;;;;;;;3.97;2.95;;;;;;;;;;5024298;28;20243;-57
2021/06/29 13:39:23;;;;;;;5.07;3.30;;;;;;;;;;5022675;28;20209;-57
2021/06/29 13:41:48;;;;;;;3.95;3.65;;;;;;;;;;5025047;28;20206;-57
2021/06/29 13:44:15;;;;;;;3.70;3.40;;;;;;;;;;5026504;28;20251;-57
2021/06/29 13:46:44;;;;;;;4.35;3.33;;;;;;;;;;5026870;28;20417;-57
2021/06/29 13:49:17;;;;;;;3.78;3.28;;;;;;;;;;5020969;28;20205;-57
2021/06/29 13:51:43;;;;;;;3.88;3.50;;;;;;;;;;5017077;28;20203;-57
2021/06/29 13:54:23;;;;;;;3.58;3.28;;;;;;;;;;5025245;28;20601;-57
2021/06/29 13:56:49;;;;;;;5.15;3.50;;;;;;;;;;5022209;28;20182;-57
2021/06/29 13:59:40;;;;;;;4.38;3.25;;;;;;;;;;5023776;28;20794;-57
2021/06/29 14:02:06;;;;;;;5.90;3.28;;;;;;;;;;5025408;28;20238;-57
2021/06/29 14:04:52;;;;;;;5.22;3.33;;;;;;;;;;5033332;28;20189;-57
2021/06/29 14:07:18;;;;;;;3.40;2.88;;;;;;;;;;5022485;28;20183;-57
2021/06/29 14:09:44;;;;;;;3.30;3.00;;;;;;;;;;5027468;28;20190;-57
2021/06/29 14:12:20;;;;;;;5.68;3.40;;;;;;;;;;5025897;28;20662;-57
2021/06/29 14:14:47;;;;;;;3.47;3.15;;;;;;;;;;5024365;28;20201;-57
2021/06/29 14:17:12;;;;;;;5.03;3.22;;;;;;;;;;5025878;28;20178;-57
2021/06/29 14:19:37;;;;;;;5.85;3.63;;;;;;;;;;5023277;28;20569;-57
2021/06/29 14:22:12;;;;;;;7.03;3.42;;;;;;;;;;5028470;28;20681;-58
2021/06/29 14:24:38;;;;;;;4.68;3.47;;;;;;;;;;5023149;28;20687;-57
2021/06/29 14:27:03;;;;;;;5.60;3.67;;;;;;;;;;5029129;28;20269;-58
2021/06/29 14:29:28;;;;;;;7.68;4.10;;;;;;;;;;5025825;28;20194;-57
2021/06/29 14:31:53;;;;;;;3.85;3.33;;;;;;;;;;5026686;28;20209;-56
2021/06/29 14:34:19;;;;;;;4.60;3.65;;;;;;;;;;5025238;28;20218;-57
2021/06/29 14:36:44;;;;;;;6.38;3.75;;;;;;;;;;5025228;28;20185;-57
2021/06/29 14:39:09;;;;;;;6.10;3.78;;;;;;;;;;5019032;28;20200;-58
2021/06/29 14:41:35;;;;;;;8.38;3.75;;;;;;;;;;5021776;28;20358;-57
2021/06/29 14:44:00;;;;;;;4.47;3.35;;;;;;;;;;5025095;28;20174;-58
2021/06/29 14:46:27;;;;;;;6.55;3.58;;;;;;;;;;5022982;28;20199;-59
2021/06/29 14:48:53;;;;;;;8.52;3.75;;;;;;;;;;5024928;28;20249;-58
2021/06/29 14:51:21;;;;;;;3.90;3.42;;;;;;;;;;5024168;28;20201;-57
2021/06/29 14:53:47;;;;;;;5.18;3.65;;;;;;;;;;5021989;28;20604;-58
2021/06/29 14:56:12;;;;;;;7.78;3.60;;;;;;;;;;5028499;28;20265;-58
2021/06/29 14:58:37;;;;;;;3.90;3.50;;;;;;;;;;5022950;28;20186;-56
2021/06/29 15:01:03;;;;;;;4.30;3.90;;;;;;;;;;5023102;28;20215;-58
2021/06/29 15:03:28;;;;;;;5.50;3.67;;;;;;;;;;5021189;28;20222;-57
2021/06/29 15:05:53;;;;;;;7.55;4.13;;;;;;;;;;5018106;28;20273;-57
2021/06/29 15:08:19;;;;;;;6.22;3.50;;;;;;;;;;5023842;28;20926;-58
2021/06/29 15:10:45;;;;;;;5.70;4.05;;;;;;;;;;5024645;28;20289;-58
2021/06/29 15:13:11;;;;;;;6.22;3.80;;;;;;;;;;5018378;28;20278;-58
2021/06/29 15:15:38;;;;;;;6.70;3.78;;;;;;;;;;5015811;28;20182;-57
2021/06/29 15:18:05;;;;;;;8.77;4.05;;;;;;;;;;5026751;28;20213;-55
2021/06/29 15:20:33;;;;;;;5.47;3.85;;;;;;;;;;5022443;28;20210;-57
2021/06/29 15:22:58;;;;;;;3.83;3.50;;;;;;;;;;5026433;28;20257;-58
2021/06/29 15:25:24;;;;;;;6.50;4.05;;;;;;;;;;5026470;28;20630;-59
2021/06/29 15:27:50;;;;;;;4.38;3.60;;;;;;;;;;5031927;28;20191;-58
2021/06/29 15:30:16;;;;;;;6.75;3.67;;;;;;;;;;5029764;28;20574;-58
2021/06/29 15:32:41;;;;;;;5.25;3.88;;;;;;;;;;5025683;28;20235;-58